Terminal Aerodrome Forecast
Issued by NWS Bismarck, ND

Home | Current Version | Previous Version | Text Only | Print | Product List | Glossary Off
Versions: 1 2 3 4 5 6 7 8 9 10 11 12 13 14

000
FTUS43 KBIS 232329
TAFISN
TAF
KISN 232329Z 2400/2424 33016G26KT P6SM BKN090
     FM240200 32012G21KT P6SM FEW090 SCT150
     FM240400 33007KT P6SM FEW140
     FM241200 31011KT P6SM SKC
     FM241500 34016G25KT P6SM FEW070=

USA.gov is the U.S. government's official web portal to all federal, state and local government web resources and services.